Time;durP1;ratioP1;P1;durP2;ratioP2;P2;SDS_P1;SDS_P2;PMS_P1;PMS_P2;Temp;Humidity;BMP_temperature;BMP_pressure;BME280_temperature;BME280_humidity;BME280_pressure;Samples;Min_cycle;Max_cycle;Signal;HPM_P1;HPM_P2
2023/04/03 00:02:30;;;;;;;27.30;16.27;;;3.10;99.90;;;;;;7602082;19;20027;-78
2023/04/03 00:05:03;;;;;;;30.27;16.37;;;3.10;99.90;;;;;;7603486;19;20412;-78
2023/04/03 00:07:35;;;;;;;29.70;16.83;;;3.10;99.90;;;;;;7598848;19;20281;-76
2023/04/03 00:10:08;;;;;;;30.17;17.67;;;3.10;99.90;;;;;;7596245;19;20026;-76
2023/04/03 00:12:40;;;;;;;28.92;16.30;;;3.10;99.90;;;;;;7581357;19;20014;-75
2023/04/03 00:15:12;;;;;;;32.63;16.23;;;3.10;99.90;;;;;;7591953;19;20011;-76
2023/04/03 00:17:45;;;;;;;28.90;16.42;;;3.10;99.90;;;;;;7598408;19;20021;-76
2023/04/03 00:20:17;;;;;;;30.83;17.83;;;3.10;99.90;;;;;;7596717;19;20150;-75
2023/04/03 00:22:50;;;;;;;29.50;16.35;;;3.10;99.90;;;;;;7585192;19;20086;-76
2023/04/03 00:25:22;;;;;;;28.55;16.55;;;3.00;99.90;;;;;;7593150;19;20345;-76
2023/04/03 00:27:55;;;;;;;29.75;16.45;;;3.10;99.90;;;;;;7585531;19;20019;-75
2023/04/03 00:30:27;;;;;;;30.27;16.00;;;3.00;99.90;;;;;;7585846;19;20018;-76
2023/04/03 00:33:00;;;;;;;26.53;15.80;;;3.00;99.90;;;;;;7569591;19;20018;-76
2023/04/03 00:35:34;;;;;;;25.90;14.38;;;3.00;99.90;;;;;;7576993;19;20627;-75
2023/04/03 00:38:06;;;;;;;27.70;16.55;;;3.10;99.90;;;;;;7583396;19;20018;-76
2023/04/03 00:40:42;;;;;;;27.85;16.08;;;3.10;99.90;;;;;;7593300;19;20057;-77
2023/04/03 00:43:22;;;;;;;26.60;15.57;;;3.10;99.90;;;;;;7590466;19;20108;-79
2023/04/03 00:45:58;;;;;;;29.80;15.63;;;3.10;99.90;;;;;;7595921;19;21064;-78
2023/04/03 00:48:34;;;;;;;29.13;16.17;;;3.10;99.90;;;;;;7596512;19;20995;-78
2023/04/03 00:51:11;;;;;;;26.85;16.15;;;3.00;99.90;;;;;;7593077;19;20021;-78
2023/04/03 00:53:48;;;;;;;29.95;16.02;;;3.00;99.90;;;;;;7586040;19;20018;-76
2023/04/03 00:56:25;;;;;;;29.25;15.77;;;3.00;99.90;;;;;;7591701;19;20018;-76
2023/04/03 00:59:05;;;;;;;25.75;15.13;;;3.00;99.90;;;;;;7591309;19;20516;-76
2023/04/03 01:01:38;;;;;;;29.23;16.58;;;3.00;99.90;;;;;;7589844;19;20035;-76
2023/04/03 01:04:30;;;;;;;26.10;16.05;;;3.10;99.90;;;;;;7586660;19;20369;-75
2023/04/03 01:07:16;;;;;;;26.90;15.63;;;3.00;99.90;;;;;;7586262;19;20014;-76
2023/04/03 01:09:53;;;;;;;26.48;15.88;;;3.00;99.90;;;;;;7589530;19;20026;-77
2023/04/03 01:12:26;;;;;;;26.50;15.43;;;3.00;99.90;;;;;;7600334;19;20029;-76
2023/04/03 01:15:00;;;;;;;;;;;3.00;99.90;;;;;;7601762;19;20693;-76
2023/04/03 01:17:41;;;;;;;29.38;15.23;;;3.00;99.90;;;;;;7601095;19;20374;-76
2023/04/03 01:20:31;;;;;;;27.75;15.70;;;3.00;99.90;;;;;;7591952;19;20046;-76
2023/04/03 01:23:10;;;;;;;28.23;15.13;;;3.00;99.90;;;;;;7576524;19;20026;-76
2023/04/03 01:25:49;;;;;;;28.95;15.65;;;3.10;99.90;;;;;;7592715;19;20340;-77
2023/04/03 01:28:30;;;;;;;26.88;15.35;;;2.90;99.90;;;;;;7586780;19;20780;-75
2023/04/03 01:31:05;;;;;;;25.83;15.43;;;2.90;99.90;;;;;;7583212;19;20521;-76
2023/04/03 01:33:39;;;;;;;27.55;16.17;;;2.90;99.90;;;;;;7586198;19;20139;-76
2023/04/03 01:36:20;;;;;;;31.98;17.90;;;3.00;99.90;;;;;;7589727;19;20086;-78
2023/04/03 01:38:54;;;;;;;26.83;15.63;;;2.90;99.90;;;;;;7565486;19;20626;-77
2023/04/03 01:41:27;;;;;;;32.70;17.65;;;2.90;99.90;;;;;;7593313;19;20039;-77
2023/04/03 01:44:05;;;;;;;27.52;15.48;;;2.80;99.90;;;;;;7605664;19;20036;-78
2023/04/03 01:46:38;;;;;;;25.85;15.02;;;2.90;99.90;;;;;;7606692;19;20014;-75
2023/04/03 01:49:10;;;;;;;32.05;16.67;;;2.90;99.90;;;;;;7582664;19;20011;-76
2023/04/03 01:51:42;;;;;;;29.47;16.97;;;2.90;99.90;;;;;;7573337;19;20418;-77
2023/04/03 01:54:15;;;;;;;30.52;17.02;;;2.90;99.90;;;;;;7590857;19;20816;-78
2023/04/03 01:56:48;;;;;;;;;;;2.90;99.90;;;;;;7589110;19;20019;-75
2023/04/03 01:59:22;;;;;;;34.45;16.63;;;3.00;99.90;;;;;;7602609;19;19926;-79
2023/04/03 02:01:55;;;;;;;27.40;15.50;;;2.90;99.90;;;;;;7582930;19;20050;-77
2023/04/03 02:04:27;;;;;;;30.27;16.02;;;3.00;99.90;;;;;;7591573;19;20033;-76
2023/04/03 02:07:00;;;;;;;27.37;15.80;;;3.00;99.90;;;;;;7587346;19;20049;-76
2023/04/03 02:09:32;;;;;;;27.10;15.25;;;3.00;99.90;;;;;;7592995;19;20018;-79
2023/04/03 02:12:04;;;;;;;23.20;14.23;;;2.90;99.90;;;;;;7596349;19;20052;-78
2023/04/03 02:14:37;;;;;;;26.30;16.55;;;3.00;99.90;;;;;;7595626;19;20017;-76
2023/04/03 02:17:09;;;;;;;28.80;15.97;;;3.00;99.90;;;;;;7588292;19;20112;-77
2023/04/03 02:19:42;;;;;;;28.88;15.32;;;3.00;99.90;;;;;;7593742;19;20956;-78
2023/04/03 02:22:14;;;;;;;27.52;15.20;;;3.00;99.90;;;;;;7597670;19;20018;-77
2023/04/03 02:24:46;;;;;;;28.60;16.13;;;3.00;99.90;;;;;;7610919;19;20014;-80
2023/04/03 02:27:19;;;;;;;30.70;16.25;;;3.00;99.90;;;;;;7605731;19;20603;-76
2023/04/03 02:29:52;;;;;;;25.05;14.80;;;3.00;99.90;;;;;;7596209;19;20014;-78
2023/04/03 02:32:25;;;;;;;27.60;14.90;;;3.00;99.90;;;;;;7596683;19;20015;-79
2023/04/03 02:34:57;;;;;;;26.52;14.98;;;3.00;99.90;;;;;;7593636;19;20879;-78
2023/04/03 02:37:29;;;;;;;25.88;15.27;;;3.10;99.90;;;;;;7589160;19;20010;-77
2023/04/03 02:40:04;;;;;;;25.63;13.90;;;3.10;99.90;;;;;;7591549;19;20588;-78
2023/04/03 02:42:36;;;;;;;24.98;14.77;;;3.10;99.90;;;;;;7593143;19;20028;-78
2023/04/03 02:45:09;;;;;;;25.55;14.30;;;3.10;99.90;;;;;;7591788;19;20029;-76
2023/04/03 02:47:42;;;;;;;28.10;15.27;;;3.10;99.90;;;;;;7585164;19;20107;-76
2023/04/03 02:50:14;;;;;;;29.35;16.02;;;3.20;99.90;;;;;;7595088;19;20014;-78
2023/04/03 02:52:46;;;;;;;25.25;14.73;;;3.10;99.90;;;;;;7590030;19;20025;-78
2023/04/03 02:55:19;;;;;;;29.35;16.48;;;3.10;99.90;;;;;;7587978;19;20469;-78
2023/04/03 02:57:53;;;;;;;27.95;13.57;;;3.10;99.90;;;;;;7573048;19;20025;-77
2023/04/03 03:00:26;;;;;;;29.63;15.60;;;3.10;99.90;;;;;;7587582;19;20504;-77
2023/04/03 03:02:58;;;;;;;25.02;15.40;;;3.10;99.90;;;;;;7589230;19;20138;-77
2023/04/03 03:05:30;;;;;;;27.77;14.18;;;3.10;99.90;;;;;;7578610;19;20086;-76
2023/04/03 03:08:03;;;;;;;29.25;16.02;;;3.20;99.90;;;;;;7564207;19;20049;-76
2023/04/03 03:10:35;;;;;;;22.33;14.57;;;3.20;99.90;;;;;;7568091;19;20022;-75
2023/04/03 03:13:07;;;;;;;22.05;13.80;;;3.10;99.90;;;;;;7578695;19;20010;-79
2023/04/03 03:15:40;;;;;;;24.08;14.90;;;3.10;99.90;;;;;;7587559;19;20025;-76
2023/04/03 03:18:12;;;;;;;25.23;14.20;;;3.10;99.90;;;;;;7573588;19;20023;-77
2023/04/03 03:20:44;;;;;;;23.38;12.68;;;3.10;99.90;;;;;;7586880;19;20029;-79
2023/04/03 03:23:16;;;;;;;20.98;12.35;;;3.20;99.90;;;;;;7577286;19;20546;-77
2023/04/03 03:25:48;;;;;;;24.25;13.75;;;3.20;99.90;;;;;;7586398;19;20010;-77
2023/04/03 03:28:20;;;;;;;21.10;12.75;;;3.20;99.90;;;;;;7577066;19;20209;-78
2023/04/03 03:30:53;;;;;;;18.73;11.77;;;3.10;99.90;;;;;;7578949;19;20017;-76
2023/04/03 03:33:27;;;;;;;21.27;13.00;;;3.10;99.90;;;;;;7581845;19;20904;-78
2023/04/03 03:36:00;;;;;;;23.20;12.23;;;3.10;99.90;;;;;;7596990;19;20014;-78
2023/04/03 03:38:32;;;;;;;20.55;12.10;;;3.10;99.90;;;;;;7594568;19;20513;-77
2023/04/03 03:41:06;;;;;;;21.25;12.18;;;3.10;99.90;;;;;;7589100;19;20058;-77
2023/04/03 03:43:39;;;;;;;16.33;11.40;;;3.10;99.90;;;;;;7592441;19;20015;-78
2023/04/03 03:46:12;;;;;;;18.40;11.03;;;3.10;99.90;;;;;;7580160;19;21387;-77
2023/04/03 03:48:45;;;;;;;16.52;10.52;;;3.10;99.90;;;;;;7602281;19;20010;-78
2023/04/03 03:51:17;;;;;;;18.65;11.55;;;3.00;99.90;;;;;;7582130;19;20562;-78
2023/04/03 03:53:50;;;;;;;19.45;10.95;;;3.10;99.90;;;;;;7582894;19;20036;-76
2023/04/03 03:56:25;;;;;;;18.75;10.80;;;3.10;99.90;;;;;;7601143;19;20018;-79
2023/04/03 03:58:57;;;;;;;22.80;11.88;;;3.10;99.90;;;;;;7591701;19;20019;-79
2023/04/03 04:01:30;;;;;;;18.00;10.90;;;3.10;99.90;;;;;;7595447;19;20030;-79
2023/04/03 04:04:02;;;;;;;15.70;10.02;;;3.10;99.90;;;;;;7591839;19;20014;-79
2023/04/03 04:06:36;;;;;;;17.80;10.48;;;3.00;99.90;;;;;;7586013;19;20029;-78
2023/04/03 04:09:11;;;;;;;18.42;10.20;;;3.00;99.90;;;;;;7603053;19;20089;-78
2023/04/03 04:11:44;;;;;;;17.42;10.10;;;3.00;99.90;;;;;;7600043;19;20052;-79
2023/04/03 04:14:20;;;;;;;18.88;11.32;;;3.00;99.90;;;;;;7595671;19;20041;-78
2023/04/03 04:16:53;;;;;;;13.80;9.45;;;3.00;99.90;;;;;;7601787;19;20042;-78
2023/04/03 04:19:29;;;;;;;17.40;11.00;;;3.00;99.90;;;;;;7595373;19;20022;-78
2023/04/03 04:22:01;;;;;;;19.15;11.55;;;3.00;99.90;;;;;;7588374;19;20018;-78
2023/04/03 04:24:35;;;;;;;18.05;11.32;;;3.00;99.90;;;;;;7598322;19;20021;-77
2023/04/03 04:27:10;;;;;;;15.57;10.05;;;3.00;99.90;;;;;;7599451;19;20123;-79
2023/04/03 04:29:43;;;;;;;16.50;10.10;;;3.00;99.90;;;;;;7602945;19;20069;-78
2023/04/03 04:32:15;;;;;;;16.77;10.48;;;3.00;99.90;;;;;;7603921;19;20022;-77
2023/04/03 04:34:49;;;;;;;18.13;10.40;;;3.00;99.90;;;;;;7601940;19;20019;-79
2023/04/03 04:37:21;;;;;;;16.02;10.25;;;3.00;99.90;;;;;;7588222;19;21255;-79
2023/04/03 04:39:54;;;;;;;17.13;11.10;;;3.00;99.90;;;;;;7598104;19;20050;-78
2023/04/03 04:42:26;;;;;;;18.00;10.52;;;3.00;99.90;;;;;;7591268;19;20030;-78
2023/04/03 04:44:59;;;;;;;17.13;10.50;;;3.00;99.90;;;;;;7594790;19;20022;-77
2023/04/03 04:47:31;;;;;;;16.52;10.32;;;2.90;99.90;;;;;;7605601;19;20018;-77
2023/04/03 04:50:03;;;;;;;18.15;10.98;;;2.90;99.90;;;;;;7602833;19;21012;-78
2023/04/03 04:52:38;;;;;;;16.10;10.38;;;2.90;99.90;;;;;;7606756;19;20019;-76
2023/04/03 04:55:12;;;;;;;19.85;10.10;;;2.90;99.90;;;;;;7603613;19;20719;-77
2023/04/03 04:57:44;;;;;;;18.87;9.90;;;2.90;99.90;;;;;;7610837;19;20014;-78
2023/04/03 05:00:18;;;;;;;17.95;10.80;;;2.90;99.90;;;;;;7612516;19;20626;-77
2023/04/03 05:02:50;;;;;;;17.33;11.70;;;2.90;99.90;;;;;;7602038;19;20026;-77
2023/04/03 05:05:24;;;;;;;;;;;2.90;99.90;;;;;;7594712;19;20081;-77
2023/04/03 05:07:56;;;;;;;18.25;11.23;;;2.90;99.90;;;;;;7590386;19;19927;-77
2023/04/03 05:10:29;;;;;;;18.05;11.07;;;2.90;99.90;;;;;;7596666;19;20019;-76
2023/04/03 05:13:01;;;;;;;17.60;10.48;;;2.90;99.90;;;;;;7591657;19;20357;-77
2023/04/03 05:15:34;;;;;;;18.38;11.00;;;2.90;99.90;;;;;;7594539;19;20011;-78
2023/04/03 05:18:07;;;;;;;18.02;10.57;;;2.90;99.90;;;;;;7591335;19;20010;-77
2023/04/03 05:20:40;;;;;;;20.90;10.63;;;2.90;99.90;;;;;;7606419;19;20136;-81
2023/04/03 05:23:12;;;;;;;19.50;10.93;;;2.90;99.90;;;;;;7609019;19;20015;-81
2023/04/03 05:25:46;;;;;;;18.55;10.93;;;2.90;99.90;;;;;;7617000;19;20059;-82
2023/04/03 05:28:19;;;;;;;18.15;10.98;;;2.90;99.90;;;;;;7617611;19;20036;-82
2023/04/03 05:30:56;;;;;;;16.65;10.85;;;2.90;99.90;;;;;;7613088;19;20017;-81
2023/04/03 05:33:32;;;;;;;17.98;11.23;;;2.90;99.90;;;;;;7616836;19;20018;-81
2023/04/03 05:36:07;;;;;;;17.92;10.60;;;2.90;99.90;;;;;;7605063;19;20007;-81
2023/04/03 05:38:45;;;;;;;17.42;10.38;;;2.90;99.90;;;;;;7615444;19;20007;-79
2023/04/03 05:41:20;;;;;;;16.33;10.38;;;2.90;99.90;;;;;;7599049;19;20025;-82
2023/04/03 05:43:53;;;;;;;15.13;9.43;;;2.90;99.90;;;;;;7607807;19;20010;-81
2023/04/03 05:46:28;;;;;;;17.25;10.57;;;2.90;99.90;;;;;;7604357;19;20021;-83
2023/04/03 05:49:02;;;;;;;19.63;9.55;;;2.90;99.90;;;;;;7605705;19;20030;-82
2023/04/03 05:51:38;;;;;;;13.57;9.23;;;3.00;99.90;;;;;;7610593;19;20057;-82
2023/04/03 05:54:26;;;;;;;16.30;8.57;;;2.90;99.90;;;;;;7602452;19;20007;-82
2023/04/03 05:57:04;;;;;;;15.07;8.98;;;2.90;99.90;;;;;;7589437;19;20019;-83
2023/04/03 05:59:37;;;;;;;13.53;8.70;;;2.90;99.90;;;;;;7573292;19;20010;-82
2023/04/03 06:02:12;;;;;;;16.70;9.70;;;2.90;99.90;;;;;;7597815;19;20061;-80
2023/04/03 06:04:45;;;;;;;14.30;9.38;;;2.90;99.90;;;;;;7601138;19;20061;-82
2023/04/03 06:07:22;;;;;;;16.38;9.57;;;3.00;99.90;;;;;;7628628;19;20541;-84
2023/04/03 06:09:56;;;;;;;15.45;9.73;;;3.00;99.90;;;;;;7621502;19;20006;-83
2023/04/03 06:12:29;;;;;;;17.90;9.70;;;3.00;99.90;;;;;;7562954;19;20014;-82
2023/04/03 06:15:03;;;;;;;18.02;10.63;;;3.00;99.90;;;;;;7583547;19;20019;-78
2023/04/03 06:17:36;;;;;;;;;;;3.00;99.90;;;;;;7578388;19;20018;-81
2023/04/03 06:20:09;;;;;;;17.05;10.13;;;3.00;99.90;;;;;;7592785;19;20303;-82
2023/04/03 06:22:41;;;;;;;15.48;9.35;;;3.00;99.90;;;;;;7617451;19;22019;-82
2023/04/03 06:25:18;;;;;;;16.85;8.88;;;3.00;99.90;;;;;;7615577;19;20141;-80
2023/04/03 06:27:50;;;;;;;14.15;9.63;;;3.00;99.90;;;;;;7614070;19;20010;-82
2023/04/03 06:30:23;;;;;;;16.17;10.18;;;3.00;99.90;;;;;;7610318;19;20508;-83
2023/04/03 06:32:55;;;;;;;14.60;9.93;;;3.00;99.90;;;;;;7611085;19;20097;-81
2023/04/03 06:35:28;;;;;;;15.88;9.38;;;3.10;99.90;;;;;;7618789;19;20786;-80
2023/04/03 06:38:01;;;;;;;14.70;9.65;;;3.20;99.90;;;;;;7615370;19;20022;-82
2023/04/03 06:40:33;;;;;;;17.90;11.35;;;3.20;99.90;;;;;;7616479;19;20635;-81
2023/04/03 06:43:05;;;;;;;14.40;9.88;;;3.20;99.90;;;;;;7612919;19;20014;-81
2023/04/03 06:45:37;;;;;;;13.48;9.02;;;3.20;99.90;;;;;;7625538;19;20019;-79
2023/04/03 06:48:11;;;;;;;14.87;9.60;;;3.20;99.90;;;;;;7634626;19;20018;-81
2023/04/03 06:50:43;;;;;;;;;;;3.20;99.90;;;;;;7642442;19;20031;-81
2023/04/03 06:53:15;;;;;;;13.13;8.80;;;3.20;99.90;;;;;;7645504;19;19915;-79
2023/04/03 06:55:48;;;;;;;13.10;8.43;;;3.20;99.90;;;;;;7633421;19;20493;-81
2023/04/03 06:58:21;;;;;;;13.75;8.93;;;3.20;99.90;;;;;;7630627;19;20337;-82
2023/04/03 07:00:54;;;;;;;15.35;8.65;;;3.20;99.90;;;;;;7625971;19;20491;-79
2023/04/03 07:03:26;;;;;;;14.80;8.75;;;3.30;99.90;;;;;;7605000;19;20018;-80
2023/04/03 07:05:59;;;;;;;13.48;8.13;;;3.30;99.90;;;;;;7602903;19;20039;-80
2023/04/03 07:08:34;;;;;;;13.90;8.73;;;3.40;99.90;;;;;;7599180;19;20022;-80
2023/04/03 07:11:07;;;;;;;16.23;8.57;;;3.40;99.90;;;;;;7607761;19;20493;-81
2023/04/03 07:13:39;;;;;;;13.48;8.35;;;3.40;99.90;;;;;;7620767;19;20032;-82
2023/04/03 07:16:12;;;;;;;13.23;8.30;;;3.40;99.90;;;;;;7613611;19;20038;-81
2023/04/03 07:18:45;;;;;;;11.90;8.23;;;3.50;99.90;;;;;;7619243;19;20900;-79
2023/04/03 07:21:17;;;;;;;13.98;8.75;;;3.50;99.90;;;;;;7621362;19;20022;-80
2023/04/03 07:23:50;;;;;;;12.10;8.48;;;3.60;99.90;;;;;;7604089;19;20024;-80
2023/04/03 07:26:22;;;;;;;12.67;8.43;;;3.60;99.90;;;;;;7610249;19;20050;-81
2023/04/03 07:28:55;;;;;;;16.17;8.18;;;3.50;99.90;;;;;;7621143;19;20018;-81
2023/04/03 07:31:27;;;;;;;15.55;8.13;;;3.60;99.90;;;;;;7611318;19;20396;-80
2023/04/03 07:33:59;;;;;;;13.25;8.32;;;3.70;99.90;;;;;;7621285;19;20014;-82
2023/04/03 07:36:33;;;;;;;13.63;8.45;;;3.70;99.90;;;;;;7610832;19;20023;-79
2023/04/03 07:39:06;;;;;;;14.90;9.02;;;3.80;99.90;;;;;;7613481;19;20014;-79
2023/04/03 07:41:39;;;;;;;;;;;3.70;99.90;;;;;;7609919;19;20038;-80
2023/04/03 07:44:11;;;;;;;15.95;8.38;;;3.70;99.90;;;;;;7606003;19;19962;-80
2023/04/03 07:46:43;;;;;;;17.65;8.82;;;3.70;99.90;;;;;;7607183;19;20015;-80
2023/04/03 07:49:18;;;;;;;16.10;8.70;;;3.80;99.90;;;;;;7607562;19;20015;-81
2023/04/03 07:51:51;;;;;;;13.13;8.10;;;3.80;99.90;;;;;;7615099;19;20026;-82
2023/04/03 07:54:23;;;;;;;17.73;8.88;;;3.80;99.90;;;;;;7601272;19;20897;-81
2023/04/03 07:56:56;;;;;;;13.93;9.27;;;3.80;99.90;;;;;;7610413;19;20017;-80
2023/04/03 07:59:28;;;;;;;13.63;8.65;;;3.80;99.90;;;;;;7615358;19;20460;-80
2023/04/03 08:02:01;;;;;;;16.10;9.47;;;3.80;99.90;;;;;;7628721;19;20026;-81
2023/04/03 08:04:34;;;;;;;13.82;8.95;;;3.90;99.90;;;;;;7625999;19;20085;-83
2023/04/03 08:07:07;;;;;;;12.40;8.80;;;3.90;99.90;;;;;;7613785;19;20011;-83
2023/04/03 08:09:39;;;;;;;16.52;9.50;;;3.90;99.90;;;;;;7630941;19;20014;-80
2023/04/03 08:12:11;;;;;;;13.98;9.50;;;4.00;99.90;;;;;;7614570;19;20010;-79
2023/04/03 08:14:44;;;;;;;15.93;9.73;;;4.00;99.90;;;;;;7597340;19;21083;-79
2023/04/03 08:17:16;;;;;;;14.60;9.15;;;3.90;99.90;;;;;;7587681;19;20014;-78
2023/04/03 08:19:48;;;;;;;13.93;9.30;;;4.00;99.90;;;;;;7603217;19;20023;-78
2023/04/03 08:22:20;;;;;;;14.00;9.40;;;4.00;99.90;;;;;;7592056;19;20014;-79
2023/04/03 08:24:52;;;;;;;16.88;10.55;;;4.00;99.90;;;;;;7598992;19;20023;-79
2023/04/03 08:27:30;;;;;;;12.95;8.35;;;4.10;99.90;;;;;;7596553;19;20019;-78
2023/04/03 08:30:06;;;;;;;14.15;9.00;;;4.00;99.90;;;;;;7601763;19;20028;-78
2023/04/03 08:32:41;;;;;;;12.10;8.98;;;4.00;99.90;;;;;;7608480;19;20022;-77
2023/04/03 08:35:14;;;;;;;14.13;9.00;;;3.90;99.90;;;;;;7577388;19;20042;-78
2023/04/03 08:37:46;;;;;;;18.97;9.80;;;4.00;99.90;;;;;;7585148;19;20022;-78
2023/04/03 08:40:19;;;;;;;13.73;9.48;;;4.00;99.90;;;;;;7607293;19;20128;-78
2023/04/03 08:43:19;;;;;;;14.48;8.63;;;4.00;99.90;;;;;;7597369;19;20666;-77
2023/04/03 08:45:55;;;;;;;16.10;9.18;;;4.10;99.90;;;;;;7584195;19;20014;-77
2023/04/03 08:48:33;;;;;;;17.67;9.27;;;4.10;99.90;;;;;;7602924;19;20040;-78
2023/04/03 08:51:15;;;;;;;20.83;9.93;;;4.20;99.90;;;;;;7598486;19;21088;-78
2023/04/03 08:53:54;;;;;;;14.07;9.75;;;4.30;99.90;;;;;;7609988;19;20026;-78
2023/04/03 08:56:26;;;;;;;17.33;9.65;;;4.30;99.90;;;;;;7606849;19;22048;-78
2023/04/03 08:59:10;;;;;;;13.80;9.10;;;4.30;99.90;;;;;;7607008;19;20039;-77
2023/04/03 09:01:43;;;;;;;14.73;9.65;;;4.40;99.90;;;;;;7605518;19;20026;-77
2023/04/03 09:04:18;;;;;;;14.63;9.75;;;4.40;99.90;;;;;;7588457;19;20026;-80
2023/04/03 09:06:55;;;;;;;12.63;9.05;;;4.40;99.90;;;;;;7604523;19;20014;-80
2023/04/03 09:09:42;;;;;;;13.82;9.52;;;4.40;99.90;;;;;;7613635;19;20021;-81
2023/04/03 09:12:26;;;;;;;14.75;10.07;;;4.50;99.90;;;;;;7613486;19;20054;-81
2023/04/03 09:15:17;;;;;;;15.00;9.50;;;4.60;99.90;;;;;;7623604;19;20030;-80
2023/04/03 09:18:25;;;;;;;15.48;9.60;;;4.70;99.90;;;;;;7612216;19;20018;-79
2023/04/03 09:21:12;;;;;;;12.20;8.90;;;4.80;99.90;;;;;;7600082;19;21509;-78
2023/04/03 09:23:47;;;;;;;13.43;8.52;;;4.90;99.90;;;;;;7596706;19;20028;-78
2023/04/03 09:26:35;;;;;;;10.90;7.53;;;4.80;99.90;;;;;;7597653;19;20054;-79
2023/04/03 09:29:14;;;;;;;11.38;8.10;;;4.80;99.90;;;;;;7601148;19;20485;-77
2023/04/03 09:31:49;;;;;;;16.02;8.02;;;4.90;99.90;;;;;;7598128;19;20017;-80
2023/04/03 09:34:35;;;;;;;12.07;7.85;;;4.80;99.90;;;;;;7597653;19;21377;-77
2023/04/03 09:37:08;;;;;;;11.68;7.95;;;4.80;99.90;;;;;;7601512;19;20012;-82
2023/04/03 09:39:53;;;;;;;14.32;8.32;;;4.90;99.90;;;;;;7604811;19;20018;-78
2023/04/03 09:42:26;;;;;;;13.35;8.40;;;4.80;99.90;;;;;;7600202;19;20026;-78
2023/04/03 09:45:01;;;;;;;12.00;9.00;;;4.80;99.90;;;;;;7614640;19;20014;-78
2023/04/03 09:47:36;;;;;;;13.75;8.88;;;4.80;99.90;;;;;;7601884;19;20015;-80
2023/04/03 09:50:14;;;;;;;11.20;8.68;;;4.70;99.90;;;;;;7614953;19;20645;-78
2023/04/03 09:52:49;;;;;;;12.00;7.95;;;4.60;99.90;;;;;;7611304;19;20044;-78
2023/04/03 09:55:28;;;;;;;12.63;8.82;;;4.40;99.90;;;;;;7605698;19;20029;-79
2023/04/03 09:58:03;;;;;;;12.13;9.23;;;4.30;99.90;;;;;;7600450;19;20057;-78
2023/04/03 10:00:38;;;;;;;13.88;8.57;;;4.30;99.90;;;;;;7610377;19;20017;-78
2023/04/03 10:03:34;;;;;;;14.55;9.48;;;4.30;99.90;;;;;;7611166;19;20054;-79
2023/04/03 10:06:23;;;;;;;11.50;9.00;;;4.30;99.90;;;;;;7598598;19;20414;-77
2023/04/03 10:09:02;;;;;;;19.75;12.27;;;4.40;99.90;;;;;;7603347;19;20014;-77
2023/04/03 10:11:35;;;;;;;12.73;8.55;;;4.50;99.90;;;;;;7609074;19;20045;-80
2023/04/03 10:14:17;;;;;;;15.52;10.43;;;4.50;99.90;;;;;;7609176;19;20987;-77
2023/04/03 10:17:27;;;;;;;17.80;12.40;;;4.70;99.90;;;;;;7602558;19;20019;-76
2023/04/03 10:20:07;;;;;;;22.10;12.85;;;4.90;99.90;;;;;;7598716;19;20102;-78
2023/04/03 10:23:02;;;;;;;30.30;18.75;;;4.90;99.90;;;;;;7599575;19;20014;-78
2023/04/03 10:25:46;;;;;;;11.93;9.25;;;4.90;99.90;;;;;;7601984;19;20623;-77
2023/04/03 10:28:30;;;;;;;15.05;10.52;;;5.00;99.90;;;;;;7602009;19;20873;-78
2023/04/03 10:31:15;;;;;;;11.80;8.85;;;5.00;99.90;;;;;;7605987;19;20025;-80
2023/04/03 10:33:59;;;;;;;16.85;10.13;;;5.10;99.90;;;;;;7596236;19;20010;-80
2023/04/03 10:36:51;;;;;;;15.35;9.40;;;5.20;99.90;;;;;;7613572;19;21153;-79
2023/04/03 10:39:58;;;;;;;12.35;9.90;;;5.10;99.90;;;;;;7609374;19;20017;-78
2023/04/03 10:42:33;;;;;;;13.20;9.65;;;5.20;99.90;;;;;;7603043;19;20022;-77
2023/04/03 10:45:26;;;;;;;12.10;8.23;;;5.20;99.90;;;;;;7608306;19;20030;-78
2023/04/03 10:48:11;;;;;;;13.55;8.82;;;5.20;99.90;;;;;;7607673;19;20426;-80
2023/04/03 10:51:22;;;;;;;13.80;9.82;;;5.10;99.90;;;;;;7608277;19;20014;-79
2023/04/03 10:54:29;;;;;;;14.43;9.25;;;4.90;99.90;;;;;;7607725;19;20013;-79
2023/04/03 10:57:07;;;;;;;13.15;9.85;;;4.50;99.90;;;;;;7604593;19;20026;-77
2023/04/03 10:59:56;;;;;;;18.60;8.50;;;4.50;99.90;;;;;;7599836;19;20049;-78
2023/04/03 11:02:31;;;;;;;14.95;9.43;;;4.30;99.90;;;;;;7586697;19;20014;-79
2023/04/03 11:05:21;;;;;;;11.50;8.55;;;4.10;99.90;;;;;;7581668;19;20043;-77
2023/04/03 11:07:57;;;;;;;13.25;9.75;;;4.00;99.90;;;;;;7592608;19;20519;-79
2023/04/03 11:10:42;;;;;;;11.82;8.52;;;3.90;99.90;;;;;;7595877;19;21388;-80
2023/04/03 11:13:21;;;;;;;16.70;10.75;;;3.90;99.90;;;;;;7593914;19;20015;-79
2023/04/03 11:15:54;;;;;;;14.10;9.20;;;3.80;99.90;;;;;;7619141;19;20026;-79
2023/04/03 11:18:37;;;;;;;12.60;8.60;;;3.90;99.90;;;;;;7609541;19;21212;-79
2023/04/03 11:21:34;;;;;;;13.95;8.38;;;3.90;99.90;;;;;;7602356;19;20116;-79
2023/04/03 11:24:20;;;;;;;12.07;7.97;;;4.00;99.90;;;;;;7614239;19;20090;-79
2023/04/03 11:26:54;;;;;;;14.95;7.88;;;4.10;99.90;;;;;;7612223;19;20010;-79
2023/04/03 11:29:38;;;;;;;9.93;7.20;;;4.10;99.90;;;;;;7596260;19;20084;-80
2023/04/03 11:32:41;;;;;;;13.03;7.50;;;4.10;99.90;;;;;;7603383;19;20082;-79
2023/04/03 11:35:14;;;;;;;11.02;6.95;;;4.10;99.90;;;;;;7614460;19;20279;-81
2023/04/03 11:37:50;;;;;;;15.40;7.88;;;4.00;99.90;;;;;;7604195;19;20819;-77
2023/04/03 11:40:27;;;;;;;19.13;9.85;;;4.10;99.90;;;;;;7593981;19;20139;-79
2023/04/03 11:43:00;;;;;;;33.75;18.65;;;4.10;99.90;;;;;;7606321;19;20011;-80
2023/04/03 11:45:36;;;;;;;15.35;8.07;;;4.10;99.90;;;;;;7593007;19;20034;-77
2023/04/03 11:48:18;;;;;;;10.63;7.35;;;4.10;99.90;;;;;;7602461;19;20073;-76
2023/04/03 11:50:56;;;;;;;10.27;6.78;;;4.00;99.90;;;;;;7600540;19;20036;-80
2023/04/03 11:53:34;;;;;;;16.02;7.30;;;4.00;99.90;;;;;;7603477;19;20016;-78
2023/04/03 11:56:27;;;;;;;8.18;6.63;;;4.00;99.90;;;;;;7602402;19;20053;-79
2023/04/03 11:59:12;;;;;;;10.75;6.25;;;4.00;99.90;;;;;;7618662;19;20611;-80
2023/04/03 12:01:54;;;;;;;11.45;7.10;;;4.00;99.90;;;;;;7605793;19;20014;-78
2023/04/03 12:04:27;;;;;;;12.65;5.93;;;4.10;99.90;;;;;;7607384;19;20017;-81
2023/04/03 12:07:10;;;;;;;14.65;6.13;;;4.20;99.90;;;;;;7594556;19;20026;-79
2023/04/03 12:09:43;;;;;;;6.97;5.53;;;4.20;99.90;;;;;;7600982;19;20019;-79
2023/04/03 12:12:34;;;;;;;7.25;5.20;;;4.30;99.90;;;;;;7619286;19;20015;-77
2023/04/03 12:15:46;;;;;;;10.27;5.60;;;4.30;99.90;;;;;;7608379;19;20033;-78
2023/04/03 12:18:41;;;;;;;7.97;4.40;;;4.30;99.90;;;;;;7613757;19;20018;-78
2023/04/03 12:21:18;;;;;;;8.30;4.80;;;4.40;99.90;;;;;;7599802;19;20053;-77
2023/04/03 12:24:01;;;;;;;10.30;5.20;;;4.40;99.90;;;;;;7595641;19;20096;-77
2023/04/03 12:27:04;;;;;;;10.43;5.32;;;4.40;99.90;;;;;;7599015;19;20026;-78
2023/04/03 12:29:51;;;;;;;9.02;5.18;;;4.40;99.90;;;;;;7603057;19;20014;-82
2023/04/03 12:32:54;;;;;;;11.95;5.40;;;4.50;99.90;;;;;;7605869;19;20384;-78
2023/04/03 12:36:08;;;;;;;6.05;4.30;;;4.60;99.20;;;;;;7611281;19;20070;-79
2023/04/03 12:39:01;;;;;;;12.63;4.97;;;4.70;97.10;;;;;;7596121;19;20019;-77
2023/04/03 12:41:40;;;;;;;11.10;8.45;;;4.60;95.70;;;;;;7604846;19;20098;-78
2023/04/03 12:44:57;;;;;;;7.88;4.82;;;4.60;95.40;;;;;;7575263;19;20018;-79
2023/04/03 12:47:35;;;;;;;6.65;5.30;;;4.50;94.40;;;;;;7582659;19;20078;-79
2023/04/03 12:50:29;;;;;;;9.88;4.32;;;4.50;96.50;;;;;;7584881;19;20097;-79
2023/04/03 12:53:17;;;;;;;6.45;4.10;;;4.60;94.80;;;;;;7590051;19;20078;-79
2023/04/03 12:55:55;;;;;;;10.82;5.47;;;4.80;94.40;;;;;;7587963;19;20014;-80
2023/04/03 12:58:28;;;;;;;7.22;4.05;;;4.90;93.80;;;;;;7595184;19;20018;-76
2023/04/03 13:01:01;;;;;;;8.15;4.97;;;5.10;93.70;;;;;;7575672;19;20018;-79
2023/04/03 13:03:33;;;;;;;6.93;4.32;;;5.20;92.10;;;;;;7589517;19;20109;-78
2023/04/03 13:06:07;;;;;;;8.48;4.55;;;5.30;92.30;;;;;;7581224;19;20620;-79
2023/04/03 13:08:52;;;;;;;9.77;4.82;;;5.50;93.20;;;;;;7576208;19;20017;-80
2023/04/03 13:11:29;;;;;;;7.57;4.45;;;5.60;93.70;;;;;;7580795;19;20007;-80
2023/04/03 13:14:15;;;;;;;10.77;4.78;;;5.70;91.00;;;;;;7577326;19;20011;-80
2023/04/03 13:16:59;;;;;;;6.35;4.28;;;5.70;90.50;;;;;;7592884;19;20472;-77
2023/04/03 13:19:31;;;;;;;8.80;3.90;;;5.90;90.80;;;;;;7567579;19;20010;-81
2023/04/03 13:22:19;;;;;;;4.97;3.28;;;5.90;90.90;;;;;;7593615;19;20018;-80
2023/04/03 13:24:53;;;;;;;7.30;3.97;;;5.90;82.40;;;;;;7597206;19;20018;-80
2023/04/03 13:27:26;;;;;;;;;;;6.20;84.70;;;;;;7610431;19;20010;-77
2023/04/03 13:30:01;;;;;;;5.63;3.20;;;6.80;80.10;;;;;;7612676;19;19923;-78
2023/04/03 13:32:33;;;;;;;10.70;3.85;;;7.40;74.90;;;;;;7613239;19;20019;-78
2023/04/03 13:35:33;;;;;;;7.13;3.38;;;7.70;75.80;;;;;;7622127;19;20066;-80
2023/04/03 13:38:17;;;;;;;4.45;2.60;;;7.80;72.70;;;;;;7623677;19;20019;-77